createdAt,value
2023-12-23T00:01:06.640Z,101982.66
2023-12-23T00:03:34.356Z,101979.94
2023-12-23T00:06:02.064Z,101989.56
2023-12-23T00:08:30.644Z,101994.84
2023-12-23T00:10:58.487Z,101992.97
2023-12-23T00:13:26.015Z,101991.91
2023-12-23T00:15:53.613Z,101995.44
2023-12-23T00:18:21.804Z,101987.63
2023-12-23T00:20:49.632Z,101998.28
2023-12-23T00:23:17.332Z,101989.78
2023-12-23T00:25:44.932Z,101988.78
2023-12-23T00:28:12.528Z,101986.03
2023-12-23T00:30:40.057Z,101988.47
2023-12-23T00:33:07.842Z,101994.59
2023-12-23T00:35:35.461Z,102000.56
2023-12-23T00:38:03.119Z,101997.91
2023-12-23T00:40:30.812Z,101999.63
2023-12-23T00:42:58.378Z,102001.69
2023-12-23T00:45:27.277Z,102001.53
2023-12-23T00:47:56.198Z,101999.34
2023-12-23T00:50:24.623Z,101998.41
2023-12-23T00:52:52.247Z,101996.47
2023-12-23T00:55:20.276Z,101996.94
2023-12-23T00:57:47.970Z,101988.56
2023-12-23T01:00:15.931Z,101983.38
2023-12-23T01:02:43.520Z,101987.59
2023-12-23T01:05:11.354Z,101982.06
2023-12-23T01:07:38.970Z,101976.56
2023-12-23T01:10:07.006Z,101979.75
2023-12-23T01:12:34.534Z,101975.50
2023-12-23T01:15:02.086Z,101978.94
2023-12-23T01:17:29.742Z,101966.94
2023-12-23T01:19:57.320Z,101969.78
2023-12-23T01:22:24.874Z,101959.44
2023-12-23T01:24:52.497Z,101961.81
2023-12-23T01:27:20.963Z,101964.56
2023-12-23T01:29:48.581Z,101963.69
2023-12-23T01:32:16.184Z,101970.41
2023-12-23T01:34:43.826Z,101974.63
2023-12-23T01:37:11.476Z,101967.59
2023-12-23T01:39:39.013Z,101965.06
2023-12-23T01:42:06.723Z,101957.09
2023-12-23T01:44:34.393Z,101960.63
2023-12-23T01:47:04.214Z,101964.34
2023-12-23T01:49:32.368Z,101967.84
2023-12-23T01:52:01.056Z,101964.94
2023-12-23T01:54:29.701Z,101961.75
2023-12-23T01:57:00.632Z,101962.59
2023-12-23T01:59:28.570Z,101963.38
2023-12-23T02:01:56.676Z,101960.63
2023-12-23T02:04:25.053Z,101965.81
2023-12-23T02:06:52.590Z,101963.16
2023-12-23T02:09:20.156Z,101965.09
2023-12-23T02:12:06.839Z,101956.53
2023-12-23T02:14:43.723Z,101965.25
2023-12-23T02:17:11.899Z,101971.19
2023-12-23T02:19:39.352Z,101968.69
2023-12-23T02:22:06.919Z,101974.03
2023-12-23T02:24:34.965Z,101963.63
2023-12-23T02:27:10.522Z,101967.84
2023-12-23T02:29:41.436Z,101967.13
2023-12-23T02:32:14.262Z,101971.41
2023-12-23T02:34:43.505Z,101977.44
2023-12-23T02:37:11.006Z,101978.13
2023-12-23T02:39:38.520Z,101974.91
2023-12-23T02:42:07.353Z,101975.06
2023-12-23T02:44:34.928Z,101969.78
2023-12-23T02:47:03.045Z,101966.53
2023-12-23T02:49:30.698Z,101962.22
2023-12-23T02:51:58.205Z,101962.22
2023-12-23T02:54:25.741Z,101972.00
2023-12-23T02:56:53.985Z,101970.94
2023-12-23T02:59:21.522Z,101973.50
2023-12-23T03:01:50.382Z,101972.56
2023-12-23T03:04:17.961Z,101968.91
2023-12-23T03:06:45.492Z,101958.69
2023-12-23T03:09:14.359Z,101955.16
2023-12-23T03:11:41.996Z,101958.56
2023-12-23T03:14:09.640Z,101959.50
2023-12-23T03:16:37.231Z,101953.25
2023-12-23T03:19:05.549Z,101957.38
2023-12-23T03:21:33.103Z,101954.44
2023-12-23T03:24:01.790Z,101947.69
2023-12-23T03:26:29.727Z,101950.06
2023-12-23T03:28:57.414Z,101943.25
2023-12-23T03:31:24.845Z,101939.00
2023-12-23T03:33:53.146Z,101945.03
2023-12-23T03:36:20.767Z,101945.38
2023-12-23T03:38:48.291Z,101936.34
2023-12-23T03:41:15.864Z,101940.75
2023-12-23T03:43:43.414Z,101937.38
2023-12-23T03:46:12.762Z,101927.97
2023-12-23T03:48:40.294Z,101933.38
2023-12-23T03:51:08.230Z,101930.00
2023-12-23T03:53:35.948Z,101924.78
2023-12-23T03:56:03.554Z,101926.16
2023-12-23T03:58:31.148Z,101920.72
2023-12-23T04:00:58.667Z,101924.13
2023-12-23T04:03:27.292Z,101925.75
2023-12-23T04:05:55.253Z,101921.66
2023-12-23T04:08:23.021Z,101922.66
2023-12-23T04:10:51.115Z,101920.13
2023-12-23T04:13:19.160Z,101920.84
2023-12-23T04:15:46.769Z,101913.94
2023-12-23T04:18:15.145Z,101909.63
2023-12-23T04:20:42.689Z,101911.47
2023-12-23T04:23:10.269Z,101901.91
2023-12-23T04:25:38.501Z,101909.88
2023-12-23T04:28:06.196Z,101904.88
2023-12-23T04:30:33.945Z,101908.06
2023-12-23T04:33:01.739Z,101892.16
2023-12-23T04:35:29.325Z,101892.16
2023-12-23T04:37:57.253Z,101879.91
2023-12-23T04:40:24.943Z,101881.50
2023-12-23T04:42:53.000Z,101883.31
2023-12-23T04:45:20.570Z,101884.25
2023-12-23T04:47:48.685Z,101882.38
2023-12-23T04:50:16.495Z,101889.28
2023-12-23T04:52:44.224Z,101884.91
2023-12-23T04:55:11.834Z,101892.72
2023-12-23T04:57:39.905Z,101895.94
2023-12-23T05:00:08.852Z,101888.31
2023-12-23T05:02:36.425Z,101883.00
2023-12-23T05:05:04.631Z,101890.53
2023-12-23T05:07:32.261Z,101881.88
2023-12-23T05:09:59.770Z,101874.91
2023-12-23T05:12:27.346Z,101873.38
2023-12-23T05:14:54.928Z,101884.69
2023-12-23T05:17:22.573Z,101873.59
2023-12-23T05:19:50.311Z,101876.81
2023-12-23T05:22:17.870Z,101872.34
2023-12-23T05:24:47.525Z,101875.59
2023-12-23T05:27:15.586Z,101879.16
2023-12-23T05:29:43.574Z,101873.09
2023-12-23T05:32:11.175Z,101875.22
2023-12-23T05:34:38.826Z,101870.69
2023-12-23T05:37:06.445Z,101869.31
2023-12-23T05:39:34.107Z,101876.50
2023-12-23T05:42:01.728Z,101871.03
2023-12-23T05:44:29.361Z,101883.44
2023-12-23T05:46:57.002Z,101888.53
2023-12-23T05:49:25.050Z,101892.81
2023-12-23T05:51:56.753Z,101886.09
2023-12-23T05:54:24.302Z,101884.19
2023-12-23T05:56:51.841Z,101890.44
2023-12-23T05:59:19.599Z,101892.16
2023-12-23T06:01:47.252Z,101890.56
2023-12-23T06:04:14.665Z,101900.50
2023-12-23T06:06:42.093Z,101900.28
2023-12-23T06:09:09.894Z,101904.41
2023-12-23T06:11:37.988Z,101916.03
2023-12-23T06:14:05.548Z,101912.47
2023-12-23T06:16:33.108Z,101909.06
2023-12-23T06:19:00.572Z,101908.53
2023-12-23T06:21:28.075Z,101909.66
2023-12-23T06:23:55.862Z,101913.72
2023-12-23T06:26:23.836Z,101913.72
2023-12-23T06:28:51.433Z,101917.16
2023-12-23T06:31:18.993Z,101917.22
2023-12-23T06:33:46.647Z,101920.81
2023-12-23T06:36:14.215Z,101919.66
2023-12-23T06:38:41.770Z,101925.03
2023-12-23T06:41:09.313Z,101931.13
2023-12-23T06:43:46.043Z,101938.28
2023-12-23T06:46:20.067Z,101939.31
2023-12-23T06:48:49.616Z,101937.72
2023-12-23T06:51:17.657Z,101931.44
2023-12-23T06:53:45.263Z,101942.72
2023-12-23T06:56:12.914Z,101944.47
2023-12-23T06:58:40.915Z,101947.09
2023-12-23T07:01:08.708Z,101954.06
2023-12-23T07:03:36.264Z,101952.31
2023-12-23T07:06:04.676Z,101944.69
2023-12-23T07:08:32.335Z,101942.00
2023-12-23T07:10:59.915Z,101940.50
2023-12-23T07:13:28.122Z,101946.59
2023-12-23T07:15:55.662Z,101953.59
2023-12-23T07:18:23.287Z,101950.81
2023-12-23T07:20:50.895Z,101947.22
2023-12-23T07:23:18.602Z,101946.47
2023-12-23T07:25:46.259Z,101950.84
2023-12-23T07:28:13.781Z,101947.38
2023-12-23T07:30:47.127Z,101949.13
2023-12-23T07:33:15.312Z,101947.47
2023-12-23T07:35:43.369Z,101937.16
2023-12-23T07:38:11.151Z,101936.38
2023-12-23T07:40:40.360Z,101945.88
2023-12-23T07:43:08.600Z,101944.88
2023-12-23T07:45:38.009Z,101940.50
2023-12-23T07:48:06.423Z,101952.66
2023-12-23T07:50:34.064Z,101955.63
2023-12-23T07:53:02.717Z,101954.75
2023-12-23T07:55:30.408Z,101955.66
2023-12-23T07:57:57.923Z,101960.09
2023-12-23T08:00:25.341Z,101957.31
2023-12-23T08:02:53.127Z,101957.53
2023-12-23T08:05:20.866Z,101965.28
2023-12-23T08:07:48.623Z,101975.03
2023-12-23T08:10:18.270Z,101973.50
2023-12-23T08:12:45.795Z,101976.81
2023-12-23T08:15:13.368Z,101978.31
2023-12-23T08:17:41.227Z,101980.94
2023-12-23T08:20:09.028Z,101980.13
2023-12-23T08:22:37.850Z,101987.03
2023-12-23T08:25:05.530Z,101982.13
2023-12-23T08:27:33.032Z,101983.38
2023-12-23T08:30:00.910Z,101978.91
2023-12-23T08:32:28.705Z,101983.19
2023-12-23T08:34:56.388Z,101987.53
2023-12-23T08:37:24.139Z,101983.16
2023-12-23T08:39:52.012Z,101977.41
2023-12-23T08:42:20.060Z,101978.34
2023-12-23T08:44:49.077Z,101973.88
2023-12-23T08:47:17.111Z,101973.00
2023-12-23T08:49:44.825Z,101970.38
2023-12-23T08:52:12.324Z,101964.47
2023-12-23T08:54:42.442Z,101965.53
2023-12-23T08:57:10.625Z,101961.25
2023-12-23T08:59:38.169Z,101961.75
2023-12-23T09:02:06.443Z,101960.13
2023-12-23T09:04:35.090Z,101962.41
2023-12-23T09:07:02.594Z,101968.56
2023-12-23T09:09:30.085Z,101972.94
2023-12-23T09:11:57.646Z,101967.72
2023-12-23T09:14:25.191Z,101971.75
2023-12-23T09:16:52.816Z,101981.25
2023-12-23T09:19:21.368Z,101980.28
2023-12-23T09:21:48.977Z,101985.63
2023-12-23T09:24:16.542Z,101975.13
2023-12-23T09:26:44.434Z,101966.66
2023-12-23T09:29:12.223Z,101972.63
2023-12-23T09:31:39.810Z,101973.63
2023-12-23T09:34:07.412Z,101975.56
2023-12-23T09:36:35.007Z,101979.81
2023-12-23T09:39:02.558Z,101979.81
2023-12-23T09:41:30.090Z,101975.47
2023-12-23T09:43:57.834Z,101966.88
2023-12-23T09:46:25.528Z,101974.75
2023-12-23T09:48:53.312Z,101976.03
2023-12-23T09:51:26.703Z,101978.63
2023-12-23T09:53:59.216Z,101982.88
2023-12-23T09:56:30.783Z,101984.47
2023-12-23T09:58:58.773Z,101981.00
2023-12-23T10:01:26.298Z,101987.03
2023-12-23T10:03:54.621Z,101984.31
2023-12-23T10:06:23.300Z,101991.66
2023-12-23T10:08:51.307Z,101980.50
2023-12-23T10:11:19.615Z,101986.28
2023-12-23T10:13:47.210Z,101980.22
2023-12-23T10:16:15.971Z,101974.13
2023-12-23T10:18:43.729Z,101970.19
2023-12-23T10:21:11.351Z,101978.84
2023-12-23T10:23:38.949Z,101966.78
2023-12-23T10:26:06.612Z,101970.13
2023-12-23T10:28:37.357Z,101970.13
2023-12-23T10:31:07.933Z,101963.03
2023-12-23T10:33:39.821Z,101957.03
2023-12-23T10:36:09.229Z,101950.44
2023-12-23T10:38:40.392Z,101957.50
2023-12-23T10:41:08.890Z,101957.66
2023-12-23T10:43:37.776Z,101957.66
2023-12-23T10:46:08.420Z,101956.22
2023-12-23T10:48:37.863Z,101958.13
2023-12-23T10:51:05.828Z,101949.28
2023-12-23T10:53:34.325Z,101951.16
2023-12-23T10:56:01.984Z,101942.47
2023-12-23T10:58:31.375Z,101940.75
2023-12-23T11:01:00.547Z,101934.75
2023-12-23T11:03:31.867Z,101939.00
2023-12-23T11:06:01.426Z,101934.47
2023-12-23T11:08:31.259Z,101925.81
2023-12-23T11:10:59.326Z,101921.53
2023-12-23T11:13:27.562Z,101919.84
2023-12-23T11:15:57.119Z,101917.97
2023-12-23T11:18:24.659Z,101921.47
2023-12-23T11:20:52.375Z,101921.53
2023-12-23T11:26:41.750Z,101914.75
2023-12-23T11:29:14.757Z,101913.94
2023-12-23T11:31:43.393Z,101900.84
2023-12-23T11:34:16.041Z,101900.03
2023-12-23T11:36:47.692Z,101888.41
2023-12-23T11:39:17.558Z,101897.97
2023-12-23T11:41:46.614Z,101884.19
2023-12-23T11:44:17.562Z,101886.09
2023-12-23T11:46:45.639Z,101882.59
2023-12-23T11:49:13.244Z,101880.88
2023-12-23T11:51:41.337Z,101883.50
2023-12-23T11:54:09.836Z,101885.41
2023-12-23T11:56:37.754Z,101883.72
2023-12-23T11:59:06.755Z,101882.84
2023-12-23T12:01:34.640Z,101883.00
2023-12-23T12:04:02.314Z,101881.41
2023-12-23T12:06:30.124Z,101874.47
2023-12-23T12:08:58.685Z,101874.44
2023-12-23T12:11:28.040Z,101871.91
2023-12-23T12:14:00.664Z,101864.31
2023-12-23T12:16:28.481Z,101868.69
2023-12-23T12:18:56.318Z,101860.72
2023-12-23T12:21:24.168Z,101860.91
2023-12-23T12:23:53.004Z,101860.91
2023-12-23T12:26:20.712Z,101859.19
2023-12-23T12:28:48.841Z,101855.72
2023-12-23T12:31:16.537Z,101852.19
2023-12-23T12:33:50.490Z,101860.00
2023-12-23T12:36:24.452Z,101852.25
2023-12-23T12:38:52.221Z,101846.34
2023-12-23T12:41:19.917Z,101840.34
2023-12-23T12:43:47.692Z,101829.19
2023-12-23T12:46:18.311Z,101823.06
2023-12-23T12:48:47.486Z,101820.38
2023-12-23T12:51:17.220Z,101825.72
2023-12-23T12:53:47.688Z,101823.13
2023-12-23T12:56:22.018Z,101819.63
2023-12-23T12:58:51.424Z,101821.44
2023-12-23T13:01:19.360Z,101822.31
2023-12-23T13:03:47.161Z,101820.59
2023-12-23T13:06:14.954Z,101816.25
2023-12-23T13:08:42.786Z,101809.47
2023-12-23T13:11:10.388Z,101800.75
2023-12-23T13:13:38.438Z,101802.50
2023-12-23T13:16:07.091Z,101794.72
2023-12-23T13:18:45.579Z,101786.84
2023-12-23T13:21:20.581Z,101784.28
2023-12-23T13:23:49.539Z,101785.19
2023-12-23T13:26:18.274Z,101780.00
2023-12-23T13:28:47.724Z,101773.00
2023-12-23T13:31:16.684Z,101772.13
2023-12-23T13:33:45.570Z,101763.44
2023-12-23T13:36:13.427Z,101767.84
2023-12-23T13:38:46.827Z,101773.06
2023-12-23T13:41:19.806Z,101767.78
2023-12-23T13:43:47.766Z,101764.38
2023-12-23T13:46:15.273Z,101757.41
2023-12-23T13:48:43.057Z,101760.84
2023-12-23T13:51:10.843Z,101753.94
2023-12-23T13:53:38.309Z,101752.19
2023-12-23T13:56:09.587Z,101751.38
2023-12-23T13:58:37.334Z,101748.00
2023-12-23T14:01:05.573Z,101754.19
2023-12-23T14:03:33.086Z,101752.50
2023-12-23T14:06:00.703Z,101748.13
2023-12-23T14:08:28.279Z,101758.69
2023-12-23T14:10:55.756Z,101759.38
2023-12-23T14:13:23.263Z,101758.56
2023-12-23T14:15:50.784Z,101763.72
2023-12-23T14:18:18.627Z,101749.75
2023-12-23T14:20:46.092Z,101748.81
2023-12-23T14:23:14.061Z,101737.47
2023-12-23T14:25:41.776Z,101743.66
2023-12-23T14:28:09.392Z,101734.94
2023-12-23T14:30:37.022Z,101741.06
2023-12-23T14:33:04.720Z,101741.09
2023-12-23T14:35:32.336Z,101746.28
2023-12-23T14:37:59.961Z,101747.94
2023-12-23T14:40:27.467Z,101749.50
2023-12-23T14:42:55.056Z,101757.31
2023-12-23T14:45:22.594Z,101747.63
2023-12-23T14:47:50.640Z,101753.78
2023-12-23T14:50:20.787Z,101763.28
2023-12-23T14:52:48.909Z,101751.81
2023-12-23T14:55:17.270Z,101754.22
2023-12-23T14:57:44.854Z,101751.69
2023-12-23T15:00:12.965Z,101750.69
2023-12-23T15:02:41.265Z,101759.38
2023-12-23T15:05:08.904Z,101755.06
2023-12-23T15:07:39.130Z,101767.25
2023-12-23T15:10:07.428Z,101755.84
2023-12-23T15:12:36.420Z,101761.94
2023-12-23T15:15:04.984Z,101761.03
2023-12-23T15:17:32.765Z,101750.38
2023-12-23T15:20:00.572Z,101762.75
2023-12-23T15:22:28.139Z,101753.25
2023-12-23T15:24:56.216Z,101752.28
2023-12-23T15:27:24.155Z,101760.97
2023-12-23T15:29:51.621Z,101754.03
2023-12-23T15:32:19.209Z,101759.91
2023-12-23T15:34:46.826Z,101755.50
2023-12-23T15:37:14.333Z,101752.94
2023-12-23T15:39:41.782Z,101765.84
2023-12-23T15:42:09.276Z,101773.56
2023-12-23T15:44:36.882Z,101770.03
2023-12-23T15:47:04.619Z,101776.03
2023-12-23T15:49:33.808Z,101781.31
2023-12-23T15:52:02.956Z,101778.59
2023-12-23T15:54:30.489Z,101785.66
2023-12-23T15:56:58.121Z,101785.44
2023-12-23T15:59:25.947Z,101786.31
2023-12-23T16:01:53.652Z,101776.72
2023-12-23T16:04:21.138Z,101779.31
2023-12-23T16:06:48.681Z,101782.78
2023-12-23T16:09:19.633Z,101785.38
2023-12-23T16:11:47.258Z,101779.44
2023-12-23T16:14:17.004Z,101780.16
2023-12-23T16:16:44.510Z,101775.00
2023-12-23T16:19:11.963Z,101769.72
2023-12-23T16:21:39.557Z,101772.19
2023-12-23T16:24:07.157Z,101773.19
2023-12-23T16:26:34.771Z,101773.41
2023-12-23T16:29:02.269Z,101771.34
2023-12-23T16:31:31.500Z,101779.16
2023-12-23T16:33:59.015Z,101779.13
2023-12-23T16:36:26.489Z,101772.00
2023-12-23T16:38:54.016Z,101777.19
2023-12-23T16:41:21.465Z,101779.06
2023-12-23T16:43:49.509Z,101776.53
2023-12-23T16:46:17.579Z,101780.94
2023-12-23T16:48:45.983Z,101771.34
2023-12-23T16:51:13.531Z,101775.63
2023-12-23T16:53:41.680Z,101779.94
2023-12-23T16:56:09.345Z,101780.81
2023-12-23T16:58:36.960Z,101774.03
2023-12-23T17:01:04.872Z,101790.81
2023-12-23T17:03:32.450Z,101791.63
2023-12-23T17:06:00.066Z,101785.44
2023-12-23T17:08:27.885Z,101793.25
2023-12-23T17:10:55.850Z,101791.44
2023-12-23T17:13:25.224Z,101784.47
2023-12-23T17:15:52.755Z,101786.28
2023-12-23T17:18:20.243Z,101795.66
2023-12-23T17:20:48.715Z,101792.19
2023-12-23T17:23:16.393Z,101788.78
2023-12-23T17:25:43.989Z,101800.06
2023-12-23T17:28:13.698Z,101799.16
2023-12-23T17:30:42.500Z,101805.16
2023-12-23T17:33:13.985Z,101801.53
2023-12-23T17:35:42.352Z,101808.47
2023-12-23T17:38:10.585Z,101801.53
2023-12-23T17:40:38.956Z,101803.28
2023-12-23T17:43:10.400Z,101805.00
2023-12-23T17:45:38.517Z,101799.78
2023-12-23T17:48:07.630Z,101806.03
2023-12-23T17:50:36.738Z,101796.25
2023-12-23T17:53:04.667Z,101804.94
2023-12-23T17:55:32.140Z,101799.28
2023-12-23T17:58:00.658Z,101795.50
2023-12-23T18:00:28.106Z,101790.22
2023-12-23T18:02:56.021Z,101801.41
2023-12-23T18:05:24.191Z,101791.16
2023-12-23T18:07:54.494Z,101796.31
2023-12-23T18:10:22.390Z,101799.78
2023-12-23T18:12:50.211Z,101797.25
2023-12-23T18:15:17.870Z,101797.13
2023-12-23T18:17:45.533Z,101789.19
2023-12-23T18:20:13.274Z,101795.09
2023-12-23T18:22:41.749Z,101790.91
2023-12-23T18:25:12.191Z,101791.59
2023-12-23T18:27:39.806Z,101786.28
2023-12-23T18:30:07.781Z,101797.53
2023-12-23T18:32:35.458Z,101794.25
2023-12-23T18:35:03.415Z,101817.72
2023-12-23T18:37:31.015Z,101818.44
2023-12-23T18:39:59.315Z,101814.19
2023-12-23T18:42:26.880Z,101810.56
2023-12-23T18:44:55.566Z,101804.41
2023-12-23T18:47:23.184Z,101811.22
2023-12-23T18:49:50.798Z,101807.72
2023-12-23T18:52:18.373Z,101794.91
2023-12-23T18:54:45.840Z,101792.19
2023-12-23T18:57:13.372Z,101801.03
2023-12-23T18:59:40.851Z,101785.06
2023-12-23T19:02:10.615Z,101791.31
2023-12-23T19:04:38.412Z,101771.38
2023-12-23T19:07:07.527Z,101770.69
2023-12-23T19:09:37.788Z,101763.63
2023-12-23T19:12:05.509Z,101767.03
2023-12-23T19:14:33.057Z,101776.28
2023-12-23T19:17:00.800Z,101783.25
2023-12-23T19:19:28.402Z,101787.47
2023-12-23T19:21:55.979Z,101793.59
2023-12-23T19:24:23.485Z,101791.03
2023-12-23T19:26:51.462Z,101800.72
2023-12-23T19:29:18.973Z,101798.78
2023-12-23T19:31:46.570Z,101791.66
2023-12-23T19:34:14.051Z,101797.75
2023-12-23T19:36:42.386Z,101778.69
2023-12-23T19:39:10.880Z,101776.16
2023-12-23T19:41:38.620Z,101780.50
2023-12-23T19:44:06.115Z,101793.78
2023-12-23T19:46:37.296Z,101798.91
2023-12-23T19:49:05.334Z,101804.03
2023-12-23T19:51:34.729Z,101804.19
2023-12-23T19:54:02.428Z,101799.63
2023-12-23T19:56:30.081Z,101788.44
2023-12-23T19:58:58.007Z,101783.19
2023-12-23T20:01:25.710Z,101782.25
2023-12-23T20:03:56.545Z,101780.56
2023-12-23T20:06:29.162Z,101768.16
2023-12-23T20:08:57.088Z,101770.75
2023-12-23T20:11:26.066Z,101763.97
2023-12-23T20:13:53.715Z,101751.78
2023-12-23T20:16:25.614Z,101744.78
2023-12-23T20:18:53.543Z,101737.81
2023-12-23T20:21:22.345Z,101748.91
2023-12-23T20:23:53.105Z,101753.88
2023-12-23T20:26:21.185Z,101758.31
2023-12-23T20:28:51.148Z,101754.69
2023-12-23T20:31:19.093Z,101756.44
2023-12-23T20:33:46.885Z,101756.31
2023-12-23T20:36:14.515Z,101757.38
2023-12-23T20:38:42.057Z,101762.44
2023-12-23T20:41:10.787Z,101749.72
2023-12-23T20:43:38.545Z,101744.47
2023-12-23T20:46:06.087Z,101742.59
2023-12-23T20:48:33.738Z,101737.16
2023-12-23T20:51:01.242Z,101736.41
2023-12-23T20:53:29.211Z,101735.56
2023-12-23T20:55:56.730Z,101730.34
2023-12-23T20:58:24.189Z,101734.56
2023-12-23T21:00:51.769Z,101731.03
2023-12-23T21:03:19.374Z,101714.56
2023-12-23T21:05:47.002Z,101706.63
2023-12-23T21:08:15.266Z,101720.41
2023-12-23T21:10:42.791Z,101721.25
2023-12-23T21:13:10.347Z,101728.31
2023-12-23T21:15:38.541Z,101724.63
2023-12-23T21:18:06.161Z,101721.22
2023-12-23T21:20:33.884Z,101720.47
2023-12-23T21:23:01.385Z,101717.91
2023-12-23T21:25:29.453Z,101707.41
2023-12-23T21:27:56.922Z,101703.81
2023-12-23T21:30:25.689Z,101699.41
2023-12-23T21:32:53.576Z,101695.03
2023-12-23T21:35:22.631Z,101697.69
2023-12-23T21:37:50.286Z,101709.88
2023-12-23T21:40:17.791Z,101694.16
2023-12-23T21:42:45.341Z,101699.44
2023-12-23T21:45:12.828Z,101701.28
2023-12-23T21:47:45.097Z,101691.53
2023-12-23T21:50:12.649Z,101679.34
2023-12-23T21:52:42.136Z,101676.69
2023-12-23T21:55:09.758Z,101673.94
2023-12-23T21:57:37.331Z,101680.78
2023-12-23T22:00:05.788Z,101679.97
2023-12-23T22:02:35.928Z,101660.03
2023-12-23T22:05:04.599Z,101666.63
2023-12-23T22:07:32.121Z,101666.75
2023-12-23T22:09:59.573Z,101662.59
2023-12-23T22:12:29.597Z,101665.88
2023-12-23T22:14:57.138Z,101673.78
2023-12-23T22:17:24.816Z,101672.81
2023-12-23T22:19:53.354Z,101685.19
2023-12-23T22:22:20.977Z,101685.34
2023-12-23T22:24:48.596Z,101689.59
2023-12-23T22:27:16.516Z,101680.00
2023-12-23T22:29:44.036Z,101682.66
2023-12-23T22:32:11.622Z,101686.06
2023-12-23T22:34:39.146Z,101684.16
2023-12-23T22:37:06.633Z,101686.13
2023-12-23T22:39:34.230Z,101676.59
2023-12-23T22:42:01.945Z,101679.75
2023-12-23T22:44:29.497Z,101685.19
2023-12-23T22:46:57.049Z,101690.28
2023-12-23T22:49:24.598Z,101683.22
2023-12-23T22:51:52.185Z,101671.00
2023-12-23T22:54:19.742Z,101682.31
2023-12-23T22:56:47.377Z,101685.81
2023-12-23T22:59:15.047Z,101677.94
2023-12-23T23:01:42.640Z,101671.81
2023-12-23T23:04:10.206Z,101663.22
2023-12-23T23:06:38.652Z,101661.41
2023-12-23T23:09:06.453Z,101656.94
2023-12-23T23:11:34.038Z,101665.44
2023-12-23T23:14:01.763Z,101658.38
2023-12-23T23:16:29.323Z,101672.41
2023-12-23T23:18:57.317Z,101666.44
2023-12-23T23:21:25.750Z,101671.69
2023-12-23T23:23:53.676Z,101674.34
2023-12-23T23:26:21.184Z,101668.25
2023-12-23T23:28:48.602Z,101670.00
2023-12-23T23:31:16.195Z,101678.75
2023-12-23T23:33:43.569Z,101684.13
2023-12-23T23:36:18.233Z,101690.84
2023-12-23T23:38:45.901Z,101684.66
2023-12-23T23:41:13.745Z,101695.06
2023-12-23T23:43:41.446Z,101691.66
2023-12-23T23:46:14.393Z,101692.63
2023-12-23T23:48:43.871Z,101708.50
2023-12-23T23:51:21.833Z,101716.25
2023-12-23T23:53:49.812Z,101718.94
2023-12-23T23:56:20.317Z,101730.22
2023-12-23T23:58:49.609Z,101731.06
